Terminal Aerodrome Forecast
Issued by NWS Portland, OR

Home | Current Version | Previous Version | Text Only | Print | Product List | Glossary On
Versions: 1 2 3 4 5 6 7 8 9 10 11 12 13 14 15 16 17 18
000
FTUS46 KPQR 181740
TAFSLE
TAF
KSLE 181740Z 1818/1918 VRB03KT P6SM FEW025 BKN040
     FM182100 36006KT P6SM FEW040
     FM191500 18010KT P6SM -RA BKN050 OVC100=

USA.gov is the U.S. government's official web portal to all federal, state and local government web resources and services.